Time;durP1;ratioP1;P1;durP2;ratioP2;P2;SDS_P1;SDS_P2;PMS_P1;PMS_P2;Temp;Humidity;BMP_temperature;BMP_pressure;BME280_temperature;BME280_humidity;BME280_pressure;Samples;Min_cycle;Max_cycle;Signal;HPM_P1;HPM_P2
2022/08/26 00:00:46;;;;;;;33.28;25.77;;;22.20;96.50;;;;;;5019660;28;20049;-59
2022/08/26 00:03:13;;;;;;;29.48;24.33;;;22.20;97.10;;;;;;5021289;28;20041;-58
2022/08/26 00:05:40;;;;;;;31.70;25.05;;;22.10;97.40;;;;;;5020945;28;20083;-59
2022/08/26 00:08:07;;;;;;;31.08;23.92;;;22.10;97.80;;;;;;5019960;28;20217;-59
2022/08/26 00:10:33;;;;;;;26.67;22.25;;;22.00;98.30;;;;;;5020194;28;20045;-58
2022/08/26 00:12:59;;;;;;;31.45;22.60;;;22.00;98.40;;;;;;5019606;28;20068;-59
2022/08/26 00:15:25;;;;;;;26.35;21.80;;;22.00;98.70;;;;;;5021561;28;20041;-59
2022/08/26 00:17:52;;;;;;;26.38;20.13;;;21.90;99.20;;;;;;5020143;28;20061;-58
2022/08/26 00:20:21;;;;;;;31.40;20.90;;;21.90;99.60;;;;;;5020199;28;20079;-60
2022/08/26 00:22:47;;;;;;;29.52;19.20;;;21.90;99.90;;;;;;5003098;28;20152;-59
2022/08/26 00:25:15;;;;;;;32.90;18.48;;;21.90;99.90;;;;;;5019442;28;20516;-59
2022/08/26 00:27:42;;;;;;;33.45;18.23;;;21.80;99.90;;;;;;5020706;28;20039;-60
2022/08/26 00:30:12;;;;;;;28.90;18.20;;;21.80;99.90;;;;;;5018495;28;20067;-59
2022/08/26 00:32:38;;;;;;;30.27;18.10;;;21.90;99.90;;;;;;5020300;28;20038;-59
2022/08/26 00:35:05;;;;;;;30.23;17.20;;;21.90;99.90;;;;;;5020544;28;20085;-60
2022/08/26 00:37:31;;;;;;;22.85;16.05;;;21.80;99.90;;;;;;5021562;28;20053;-58
2022/08/26 00:39:58;;;;;;;31.25;17.23;;;21.80;99.90;;;;;;5020968;28;20437;-60
2022/08/26 00:42:24;;;;;;;28.05;16.65;;;21.90;99.90;;;;;;5019309;28;20046;-59
2022/08/26 00:44:50;;;;;;;31.02;16.25;;;21.90;99.90;;;;;;5036428;28;20042;-59
2022/08/26 00:47:31;;;;;;;24.45;15.02;;;21.80;99.90;;;;;;5019482;28;20132;-58
2022/08/26 00:50:00;;;;;;;26.33;16.40;;;21.90;99.90;;;;;;5020854;28;20096;-60
2022/08/26 00:52:27;;;;;;;30.42;16.88;;;21.80;99.90;;;;;;5020517;28;20136;-60
2022/08/26 00:55:03;;;;;;;27.40;16.75;;;21.90;99.90;;;;;;5020394;28;20060;-59
2022/08/26 00:57:31;;;;;;;29.40;17.55;;;21.90;99.90;;;;;;5036002;28;20194;-59
2022/08/26 00:59:59;;;;;;;31.05;19.20;;;21.80;99.90;;;;;;5018965;28;20037;-59
2022/08/26 01:02:25;;;;;;;33.35;20.38;;;21.80;99.90;;;;;;5020482;28;20524;-59
2022/08/26 01:04:55;;;;;;;34.03;19.40;;;21.70;99.90;;;;;;5002229;28;20365;-60
2022/08/26 01:07:21;;;;;;;30.20;20.05;;;21.70;99.90;;;;;;5020959;28;20104;-59
2022/08/26 01:09:47;;;;;;;34.45;19.48;;;21.70;99.90;;;;;;5018115;28;20038;-59
2022/08/26 01:12:13;;;;;;;36.45;19.10;;;21.70;99.90;;;;;;5019599;28;20045;-59
2022/08/26 01:14:39;;;;;;;32.53;19.88;;;21.70;99.90;;;;;;5020330;28;20116;-59
2022/08/26 01:17:07;;;;;;;33.92;19.08;;;21.70;99.90;;;;;;5021096;28;20420;-59
2022/08/26 01:19:56;;;;;;;29.88;18.00;;;21.70;99.90;;;;;;5018723;28;20041;-59
2022/08/26 01:22:29;;;;;;;36.47;19.73;;;21.60;99.90;;;;;;5020591;28;20041;-59
2022/08/26 01:24:57;;;;;;;38.63;20.08;;;21.60;99.90;;;;;;5020198;28;20068;-59
2022/08/26 01:27:29;;;;;;;36.63;19.00;;;21.60;99.90;;;;;;5017242;28;20577;-59
2022/08/26 01:29:57;;;;;;;29.13;19.03;;;21.60;99.90;;;;;;5020440;28;20092;-59
2022/08/26 01:32:24;;;;;;;31.20;18.70;;;21.60;99.90;;;;;;5034409;28;20362;-58
2022/08/26 01:34:51;;;;;;;31.70;19.02;;;21.60;99.90;;;;;;5019371;28;20050;-59
2022/08/26 01:37:25;;;;;;;33.78;18.67;;;21.60;99.90;;;;;;5018671;28;20041;-59
2022/08/26 01:39:56;;;;;;;29.15;19.15;;;21.60;99.90;;;;;;5021049;28;20439;-59
2022/08/26 01:42:24;;;;;;;29.25;17.85;;;21.60;99.90;;;;;;5023224;28;20092;-59
2022/08/26 01:44:56;;;;;;;33.88;20.52;;;21.50;99.90;;;;;;5023228;28;20041;-59
2022/08/26 01:47:26;;;;;;;35.00;20.17;;;21.50;99.90;;;;;;5024320;28;20511;-59
2022/08/26 01:49:54;;;;;;;32.55;18.75;;;21.50;99.90;;;;;;5020228;28;20042;-59
2022/08/26 01:52:25;;;;;;;37.92;19.55;;;21.50;99.90;;;;;;5021818;28;20049;-60
2022/08/26 01:54:52;;;;;;;36.40;19.30;;;21.50;99.90;;;;;;5024138;28;20572;-59
2022/08/26 01:57:19;;;;;;;43.97;21.20;;;21.50;99.90;;;;;;5023008;28;20404;-59
2022/08/26 01:59:48;;;;;;;33.70;18.95;;;21.50;99.90;;;;;;5024038;28;20097;-59
2022/08/26 02:02:14;;;;;;;28.95;18.27;;;21.50;99.90;;;;;;5022813;28;20125;-59
2022/08/26 02:04:47;;;;;;;33.80;19.55;;;21.40;99.90;;;;;;5021613;28;20582;-59
2022/08/26 02:07:14;;;;;;;33.17;19.58;;;21.50;99.90;;;;;;5022090;28;20084;-59
2022/08/26 02:09:41;;;;;;;38.90;20.35;;;21.50;99.90;;;;;;5022918;28;20094;-59
2022/08/26 02:12:09;;;;;;;40.70;20.92;;;21.50;99.90;;;;;;5021442;28;20091;-59
2022/08/26 02:14:43;;;;;;;42.10;20.05;;;21.40;99.90;;;;;;5023735;28;20053;-58
2022/08/26 02:17:09;;;;;;;33.55;19.00;;;21.40;99.90;;;;;;5021832;28;20495;-59
2022/08/26 02:19:39;;;;;;;31.52;17.67;;;21.40;99.90;;;;;;5022520;28;20491;-60
2022/08/26 02:22:12;;;;;;;31.90;19.30;;;21.40;99.90;;;;;;5023555;28;20048;-59
2022/08/26 02:25:13;;;;;;;37.40;21.17;;;21.40;99.90;;;;;;5020240;28;20061;-59
2022/08/26 02:27:39;;;;;;;33.03;19.80;;;21.40;99.90;;;;;;5006764;28;20057;-60
2022/08/26 02:30:15;;;;;;;38.58;21.15;;;21.40;99.90;;;;;;5021871;28;20056;-59
2022/08/26 02:32:41;;;;;;;41.53;21.02;;;21.40;99.90;;;;;;5037947;28;20551;-59
2022/08/26 02:35:10;;;;;;;41.67;21.02;;;21.40;99.90;;;;;;5022530;28;20037;-58
2022/08/26 02:37:36;;;;;;;40.38;20.88;;;21.40;99.90;;;;;;5022408;28;20045;-59
2022/08/26 02:40:05;;;;;;;40.58;21.45;;;21.40;99.90;;;;;;5021329;28;20579;-59
2022/08/26 02:42:31;;;;;;;37.63;19.52;;;21.40;99.90;;;;;;5022205;28;20077;-60
2022/08/26 02:44:56;;;;;;;39.78;20.10;;;21.30;99.90;;;;;;5022675;28;20073;-58
2022/08/26 02:47:24;;;;;;;32.63;18.98;;;21.30;99.90;;;;;;5022860;28;20045;-59
2022/08/26 02:49:50;;;;;;;34.75;18.67;;;21.30;99.90;;;;;;5037249;28;20110;-59
2022/08/26 02:52:16;;;;;;;33.50;17.13;;;21.30;99.90;;;;;;5020787;28;20392;-59
2022/08/26 02:54:42;;;;;;;33.13;18.05;;;21.30;99.90;;;;;;5021394;28;20092;-59
2022/08/26 02:57:09;;;;;;;35.95;18.48;;;21.30;99.90;;;;;;5020040;28;20048;-59
2022/08/26 02:59:38;;;;;;;37.70;18.73;;;21.30;99.90;;;;;;5021681;28;20049;-59
2022/08/26 03:02:04;;;;;;;34.67;19.65;;;21.30;99.90;;;;;;5020985;28;20045;-59
2022/08/26 03:04:30;;;;;;;35.53;19.33;;;21.30;99.90;;;;;;5021021;28;20615;-59
2022/08/26 03:06:57;;;;;;;34.10;18.17;;;21.20;99.90;;;;;;5020807;28;20045;-59
2022/08/26 03:09:23;;;;;;;33.92;17.33;;;21.30;99.90;;;;;;5022594;28;20056;-58
2022/08/26 03:11:50;;;;;;;30.73;16.55;;;21.30;99.90;;;;;;5020972;28;20135;-59
2022/08/26 03:14:16;;;;;;;34.00;16.67;;;21.20;99.90;;;;;;5021239;28;20428;-59
2022/08/26 03:16:42;;;;;;;31.38;16.17;;;21.20;99.90;;;;;;5021669;28;20048;-59
2022/08/26 03:19:08;;;;;;;33.53;17.65;;;21.20;99.90;;;;;;5020142;28;20065;-58
2022/08/26 03:21:36;;;;;;;31.48;16.23;;;21.20;99.90;;;;;;5021269;28;20413;-59
2022/08/26 03:24:02;;;;;;;33.10;16.88;;;21.20;99.90;;;;;;5021154;28;20100;-58
2022/08/26 03:26:28;;;;;;;32.30;15.93;;;21.20;99.90;;;;;;5022354;28;20056;-60
2022/08/26 03:31:39;;;;;;;29.55;14.95;;;21.10;99.90;;;;;;5020026;28;20054;-59
2022/08/26 03:34:05;;;;;;;33.85;17.15;;;21.10;99.90;;;;;;5021066;28;20056;-59
2022/08/26 03:36:31;;;;;;;30.05;15.20;;;21.10;99.90;;;;;;5020588;28;20045;-59
2022/08/26 03:38:57;;;;;;;27.08;14.85;;;21.10;99.90;;;;;;5022638;28;20152;-59
2022/08/26 03:41:23;;;;;;;30.20;16.05;;;21.10;99.90;;;;;;5021847;28;20144;-59
2022/08/26 03:43:49;;;;;;;29.33;15.40;;;21.10;99.90;;;;;;5019470;28;20083;-60
2022/08/26 03:46:16;;;;;;;26.10;14.60;;;21.10;99.90;;;;;;5020454;28;20117;-59
2022/08/26 03:48:42;;;;;;;30.17;14.23;;;21.10;99.90;;;;;;5019810;28;20044;-59
2022/08/26 03:51:13;;;;;;;23.80;12.70;;;21.00;99.90;;;;;;5020239;28;20408;-59
2022/08/26 03:53:39;;;;;;;28.95;13.15;;;21.00;99.90;;;;;;5021086;28;20163;-60
2022/08/26 03:56:05;;;;;;;25.55;12.75;;;21.00;99.90;;;;;;5021178;28;20751;-60
2022/08/26 03:58:31;;;;;;;25.35;12.32;;;21.00;99.90;;;;;;5020060;28;20041;-59
2022/08/26 04:00:57;;;;;;;30.65;13.57;;;21.00;99.90;;;;;;5034985;28;20132;-59
2022/08/26 04:06:08;;;;;;;25.92;14.32;;;20.90;99.90;;;;;;5020495;28;20045;-59
2022/08/26 04:08:35;;;;;;;25.70;14.38;;;20.90;99.90;;;;;;5020917;28;20049;-60
2022/08/26 04:11:01;;;;;;;25.42;13.80;;;20.90;99.90;;;;;;5004041;28;20042;-59
2022/08/26 04:13:31;;;;;;;21.77;14.10;;;20.80;99.90;;;;;;5018955;28;20479;-59
2022/08/26 04:15:57;;;;;;;26.98;14.38;;;20.80;99.90;;;;;;5020741;28;20128;-59
2022/08/26 04:18:22;;;;;;;25.30;13.93;;;20.90;99.90;;;;;;5019078;28;20046;-58
2022/08/26 04:20:49;;;;;;;25.05;13.15;;;20.80;99.90;;;;;;5036931;28;20049;-60
2022/08/26 04:23:16;;;;;;;22.02;11.60;;;20.80;99.90;;;;;;5035170;28;20045;-58
2022/08/26 04:25:42;;;;;;;27.10;12.60;;;20.80;99.90;;;;;;5020384;28;20168;-59
2022/08/26 04:28:09;;;;;;;25.52;13.20;;;20.80;99.90;;;;;;5018474;28;20055;-59
2022/08/26 04:30:38;;;;;;;20.55;11.68;;;20.80;99.90;;;;;;5020805;28;20144;-58
2022/08/26 04:33:06;;;;;;;25.00;13.85;;;20.80;99.90;;;;;;5020983;28;20056;-60
2022/08/26 04:35:33;;;;;;;27.23;13.07;;;20.80;99.90;;;;;;5020563;28;20428;-59
2022/08/26 04:38:00;;;;;;;29.63;13.65;;;20.80;99.90;;;;;;5019951;28;20126;-59
2022/08/26 04:40:26;;;;;;;30.02;14.43;;;20.70;99.90;;;;;;5018131;28;20041;-60
2022/08/26 04:42:53;;;;;;;27.13;13.52;;;20.80;99.90;;;;;;5019588;28;20083;-59
2022/08/26 04:45:19;;;;;;;26.95;13.80;;;20.70;99.90;;;;;;5019962;28;20060;-59
2022/08/26 04:47:45;;;;;;;28.15;13.63;;;20.70;99.90;;;;;;5019895;28;20059;-59
2022/08/26 04:50:11;;;;;;;31.88;14.05;;;20.70;99.90;;;;;;5019052;28;20037;-59
2022/08/26 04:52:37;;;;;;;26.77;12.90;;;20.70;99.90;;;;;;5019975;28;20124;-59
2022/08/26 04:55:04;;;;;;;26.63;13.43;;;20.70;99.90;;;;;;5020132;28;20125;-58
2022/08/26 04:57:30;;;;;;;28.67;12.68;;;20.70;99.90;;;;;;5018457;28;20644;-60
2022/08/26 04:59:56;;;;;;;26.60;13.50;;;20.70;99.90;;;;;;5020820;28;20228;-59
2022/08/26 05:02:22;;;;;;;36.20;13.98;;;20.70;99.90;;;;;;5019670;28;20041;-59
2022/08/26 05:04:48;;;;;;;31.25;14.65;;;20.70;99.90;;;;;;5020023;28;20072;-58
2022/08/26 05:07:14;;;;;;;32.42;14.05;;;20.70;99.90;;;;;;5019159;28;20068;-59
2022/08/26 05:09:40;;;;;;;28.90;12.98;;;20.70;99.90;;;;;;5020836;28;20475;-59
2022/08/26 05:12:06;;;;;;;27.10;12.88;;;20.60;99.90;;;;;;5019249;28;20569;-59
2022/08/26 05:14:32;;;;;;;28.00;12.25;;;20.60;99.90;;;;;;5019025;28;20526;-59
2022/08/26 05:16:58;;;;;;;33.30;12.95;;;20.60;99.90;;;;;;5022234;28;20041;-60
2022/08/26 05:19:23;;;;;;;28.67;12.75;;;20.70;99.90;;;;;;5022694;28;20045;-59
2022/08/26 05:21:49;;;;;;;27.52;12.60;;;20.60;99.90;;;;;;5023698;28;20049;-59
2022/08/26 05:24:16;;;;;;;27.25;12.88;;;20.60;99.90;;;;;;5023998;28;20472;-60
2022/08/26 05:26:43;;;;;;;26.83;12.75;;;20.70;99.90;;;;;;5023824;28;20049;-59
2022/08/26 05:29:09;;;;;;;29.58;11.35;;;20.70;99.90;;;;;;5024180;28;20049;-59
2022/08/26 05:31:34;;;;;;;26.02;11.57;;;20.70;99.90;;;;;;5022320;28;20049;-59
2022/08/26 05:34:03;;;;;;;28.60;11.15;;;20.70;99.90;;;;;;5024798;28;20052;-58
2022/08/26 05:36:30;;;;;;;33.45;11.70;;;20.70;99.90;;;;;;5022201;28;20061;-59
2022/08/26 05:38:56;;;;;;;24.63;10.18;;;20.70;99.90;;;;;;5024275;28;20042;-59
2022/08/26 05:41:31;;;;;;;25.40;9.85;;;20.70;99.90;;;;;;5021874;28;20049;-59
2022/08/26 05:43:59;;;;;;;25.65;10.05;;;20.80;99.90;;;;;;5024555;28;20518;-59
2022/08/26 05:46:26;;;;;;;25.75;10.00;;;20.80;99.90;;;;;;5022366;28;20056;-59
2022/08/26 05:48:53;;;;;;;23.73;9.50;;;20.80;99.90;;;;;;5022424;28;20049;-59
2022/08/26 05:51:20;;;;;;;25.95;9.38;;;20.80;99.90;;;;;;5022589;28;20045;-59
2022/08/26 05:53:46;;;;;;;25.85;8.27;;;20.90;99.90;;;;;;5022878;28;20071;-60
2022/08/26 05:56:12;;;;;;;19.55;8.68;;;20.90;99.90;;;;;;5023052;28;20045;-59
2022/08/26 05:58:41;;;;;;;23.10;8.40;;;20.90;99.90;;;;;;5022882;28;20045;-60
2022/08/26 06:01:16;;;;;;;20.65;8.77;;;21.00;99.90;;;;;;5021552;28;20045;-60
2022/08/26 06:03:45;;;;;;;21.35;7.80;;;21.00;99.90;;;;;;5023166;28;20042;-58
2022/08/26 06:06:14;;;;;;;18.17;8.70;;;21.10;99.90;;;;;;5023298;28;20063;-60
2022/08/26 06:08:41;;;;;;;18.27;7.80;;;21.10;99.90;;;;;;5021222;28;20057;-60
2022/08/26 06:11:09;;;;;;;15.38;7.32;;;21.10;99.90;;;;;;5020898;28;20056;-59
2022/08/26 06:13:36;;;;;;;20.65;7.00;;;21.10;99.90;;;;;;5022283;28;20072;-60
2022/08/26 06:16:05;;;;;;;17.20;7.43;;;21.10;99.90;;;;;;5021845;28;20658;-59
2022/08/26 06:18:35;;;;;;;21.38;7.90;;;21.10;99.90;;;;;;5023160;28;20550;-59
2022/08/26 06:21:34;;;;;;;20.95;7.68;;;21.10;99.90;;;;;;5021783;28;20541;-59
2022/08/26 06:26:57;;;;;;;23.23;8.75;;;21.10;99.90;;;;;;5014376;28;20492;-59
2022/08/26 06:29:25;;;;;;;20.40;7.20;;;21.10;99.90;;;;;;5022590;28;20038;-60
2022/08/26 06:31:52;;;;;;;24.17;7.32;;;21.10;99.90;;;;;;5022367;28;20046;-59
2022/08/26 06:34:18;;;;;;;20.65;6.72;;;21.10;99.90;;;;;;5021794;28;20479;-58
2022/08/26 06:36:44;;;;;;;20.65;7.55;;;21.20;99.90;;;;;;5022604;28;20605;-59
2022/08/26 06:39:13;;;;;;;21.52;6.70;;;21.10;99.90;;;;;;5022522;28;20045;-60
2022/08/26 06:41:39;;;;;;;17.52;5.95;;;21.10;99.90;;;;;;5022795;28;20049;-59
2022/08/26 06:44:06;;;;;;;19.13;6.07;;;21.10;99.90;;;;;;5036190;28;20045;-60
2022/08/26 06:46:32;;;;;;;16.88;6.55;;;21.10;99.90;;;;;;5021828;28;20063;-59
2022/08/26 06:48:59;;;;;;;22.42;6.38;;;21.10;99.90;;;;;;5026081;28;20045;-60
2022/08/26 06:51:27;;;;;;;20.65;6.50;;;21.10;99.90;;;;;;5022741;28;20029;-60
2022/08/26 06:53:54;;;;;;;16.77;6.32;;;21.10;99.90;;;;;;5023270;28;20065;-60
2022/08/26 06:56:24;;;;;;;20.60;6.50;;;21.10;99.90;;;;;;5020522;28;20045;-59
2022/08/26 06:58:50;;;;;;;18.33;5.63;;;21.10;99.90;;;;;;5022006;28;20129;-60
2022/08/26 07:01:21;;;;;;;22.40;6.05;;;21.10;99.90;;;;;;5020903;28;20041;-60
2022/08/26 07:03:49;;;;;;;18.48;6.25;;;21.10;99.90;;;;;;5022499;28;20046;-60
2022/08/26 07:06:18;;;;;;;23.30;5.68;;;21.10;99.90;;;;;;5022152;28;20049;-59
2022/08/26 07:08:51;;;;;;;16.25;5.45;;;21.10;99.90;;;;;;5023186;28;20091;-59
2022/08/26 07:11:18;;;;;;;15.50;5.32;;;21.10;99.90;;;;;;5022263;28;20042;-59
2022/08/26 07:13:45;;;;;;;18.02;5.70;;;21.10;99.90;;;;;;5020729;28;20443;-59
2022/08/26 07:16:13;;;;;;;17.45;5.32;;;21.10;99.90;;;;;;5022933;28;20057;-59
2022/08/26 07:18:42;;;;;;;22.23;5.38;;;21.10;99.90;;;;;;5020411;28;20056;-60
2022/08/26 07:21:10;;;;;;;14.07;5.13;;;21.00;99.90;;;;;;5020674;28;20087;-59
2022/08/26 07:23:37;;;;;;;17.25;5.03;;;21.10;99.90;;;;;;5019996;28;20049;-60
2022/08/26 07:26:07;;;;;;;25.85;6.00;;;21.10;99.90;;;;;;5022056;28;20037;-59
2022/08/26 07:28:33;;;;;;;21.52;5.45;;;21.10;99.90;;;;;;5036695;28;20093;-59
2022/08/26 07:31:07;;;;;;;16.23;4.65;;;21.10;99.90;;;;;;5020867;28;20046;-60
2022/08/26 07:33:35;;;;;;;16.40;4.57;;;21.10;99.90;;;;;;5022766;28;20079;-60
2022/08/26 07:36:02;;;;;;;17.15;5.20;;;21.20;99.90;;;;;;5021870;28;20488;-59
2022/08/26 07:38:27;;;;;;;13.98;5.30;;;21.20;99.90;;;;;;5022623;28;20423;-59
2022/08/26 07:40:54;;;;;;;13.05;4.18;;;21.20;99.90;;;;;;5020810;28;20047;-59
2022/08/26 07:43:20;;;;;;;17.63;4.10;;;21.20;99.90;;;;;;5020519;28;20125;-59
2022/08/26 07:45:46;;;;;;;10.80;3.13;;;21.20;99.90;;;;;;5020401;28;20033;-59
2022/08/26 07:48:12;;;;;;;11.65;2.80;;;21.20;99.90;;;;;;5020539;28;20087;-60
2022/08/26 07:50:39;;;;;;;10.57;2.67;;;21.20;99.90;;;;;;5019798;28;20056;-59
2022/08/26 07:53:05;;;;;;;12.13;2.75;;;21.30;99.90;;;;;;5021407;28;20057;-59
2022/08/26 07:55:31;;;;;;;11.25;2.70;;;21.30;99.90;;;;;;5019824;28;20127;-60
2022/08/26 07:57:56;;;;;;;14.57;2.80;;;21.30;99.90;;;;;;5022312;28;20049;-59
2022/08/26 08:00:22;;;;;;;16.70;3.55;;;21.30;99.90;;;;;;5020963;28;20056;-60
2022/08/26 08:02:48;;;;;;;12.00;2.97;;;21.40;99.90;;;;;;5020529;28;20061;-58
2022/08/26 08:05:16;;;;;;;12.40;2.95;;;21.40;99.90;;;;;;5035544;28;20463;-59
2022/08/26 08:07:45;;;;;;;11.13;3.20;;;21.50;99.90;;;;;;5021155;28;20451;-60
2022/08/26 08:10:19;;;;;;;20.92;3.90;;;21.50;99.90;;;;;;5022503;28;20512;-59
2022/08/26 08:12:46;;;;;;;16.73;3.35;;;21.60;99.90;;;;;;5023028;28;20033;-59
2022/08/26 08:15:14;;;;;;;14.15;3.65;;;21.70;99.90;;;;;;5021310;28;20054;-59
2022/08/26 08:17:43;;;;;;;15.40;2.95;;;21.70;99.90;;;;;;5020601;28;20087;-59
2022/08/26 08:20:09;;;;;;;12.27;2.75;;;21.70;99.90;;;;;;5019813;28;20049;-60
2022/08/26 08:22:35;;;;;;;12.48;2.72;;;21.80;99.90;;;;;;5019792;28;20059;-59
2022/08/26 08:25:01;;;;;;;11.65;2.60;;;21.80;99.90;;;;;;5019331;28;20115;-59
2022/08/26 08:27:27;;;;;;;10.23;2.53;;;21.90;99.90;;;;;;5022329;28;20081;-60
2022/08/26 08:29:53;;;;;;;15.57;3.10;;;21.90;99.90;;;;;;5020931;28;20056;-60
2022/08/26 08:32:20;;;;;;;9.55;2.58;;;21.90;99.90;;;;;;5035691;28;20052;-64
2022/08/26 08:34:46;;;;;;;10.85;2.47;;;21.90;99.90;;;;;;5020800;28;20076;-59
2022/08/26 08:37:12;;;;;;;9.02;1.92;;;21.90;99.90;;;;;;5021739;28;20045;-59
2022/08/26 08:39:38;;;;;;;10.82;2.30;;;21.80;99.90;;;;;;5021083;28;20057;-59
2022/08/26 08:42:49;;;;;;;13.63;2.60;;;21.80;99.90;;;;;;5019291;28;20045;-60
2022/08/26 08:45:33;;;;;;;8.50;2.28;;;21.70;99.90;;;;;;5019258;28;20492;-59
2022/08/26 08:48:09;;;;;;;8.18;2.33;;;21.70;99.90;;;;;;5020296;28;20552;-60
2022/08/26 08:51:04;;;;;;;10.73;2.28;;;21.70;99.90;;;;;;5021917;28;20149;-60
2022/08/26 08:53:36;;;;;;;14.73;2.47;;;21.60;99.90;;;;;;5016251;28;20061;-59
2022/08/26 08:56:20;;;;;;;13.15;2.95;;;21.60;99.90;;;;;;5022545;28;20060;-58
2022/08/26 08:58:50;;;;;;;10.95;2.25;;;21.50;99.90;;;;;;5024731;28;20056;-59
2022/08/26 09:01:29;;;;;;;14.18;2.42;;;21.40;99.90;;;;;;5040939;28;20060;-59
2022/08/26 09:04:15;;;;;;;15.45;3.03;;;21.40;99.90;;;;;;5025628;28;20407;-60
2022/08/26 09:06:41;;;;;;;11.10;2.45;;;21.30;99.90;;;;;;5024601;28;20065;-60
2022/08/26 09:09:13;;;;;;;10.00;2.58;;;21.30;99.90;;;;;;5039949;28;20037;-59
2022/08/26 09:11:39;;;;;;;12.70;2.83;;;21.20;99.90;;;;;;5023804;28;20060;-59
2022/08/26 09:14:10;;;;;;;11.07;2.70;;;21.20;99.90;;;;;;5023503;28;20304;-59
2022/08/26 09:16:45;;;;;;;10.43;2.40;;;21.20;99.90;;;;;;5024324;28;20041;-59
2022/08/26 09:19:24;;;;;;;10.95;2.85;;;21.20;99.90;;;;;;5024041;28;20041;-59
2022/08/26 09:21:57;;;;;;;11.05;2.75;;;21.20;99.90;;;;;;5024484;28;20049;-59
2022/08/26 09:24:24;;;;;;;10.00;2.60;;;21.30;99.90;;;;;;5024779;28;20124;-59
2022/08/26 09:26:51;;;;;;;9.13;2.40;;;21.30;99.90;;;;;;5023878;28;20042;-58
2022/08/26 09:29:29;;;;;;;10.27;2.65;;;21.40;99.90;;;;;;5022827;28;20470;-59
2022/08/26 09:32:20;;;;;;;7.75;2.20;;;21.40;99.90;;;;;;5022885;28;20052;-59
2022/08/26 09:35:21;;;;;;;8.00;2.20;;;21.50;99.90;;;;;;5022858;28;20116;-60
2022/08/26 09:37:48;;;;;;;10.35;3.20;;;21.60;99.90;;;;;;5022953;28;20511;-59
2022/08/26 09:40:21;;;;;;;8.95;2.47;;;21.60;99.90;;;;;;5023012;28;20045;-59
2022/08/26 09:43:03;;;;;;;11.57;2.50;;;21.70;99.90;;;;;;5023686;28;20462;-59
2022/08/26 09:45:29;;;;;;;12.18;2.10;;;21.80;99.90;;;;;;5022163;28;20041;-59
2022/08/26 09:47:56;;;;;;;11.63;2.38;;;21.80;99.90;;;;;;5022677;28;20091;-59
2022/08/26 09:50:34;;;;;;;11.82;2.45;;;21.90;99.90;;;;;;5021132;28;20494;-59
2022/08/26 09:53:24;;;;;;;10.82;2.65;;;21.90;99.90;;;;;;5021643;28;20504;-60
2022/08/26 09:56:08;;;;;;;15.75;2.40;;;21.80;99.90;;;;;;5023134;28;20052;-59
2022/08/26 09:58:37;;;;;;;10.35;2.20;;;21.80;99.90;;;;;;5022009;28;20617;-59
2022/08/26 10:01:13;;;;;;;9.63;2.45;;;21.80;99.90;;;;;;5023016;28;20048;-59
2022/08/26 10:03:40;;;;;;;13.52;2.90;;;21.80;99.90;;;;;;5021542;28;20046;-60
2022/08/26 10:06:16;;;;;;;9.65;2.20;;;21.70;99.90;;;;;;5037990;28;20067;-60
2022/08/26 10:08:47;;;;;;;11.70;2.47;;;21.70;99.90;;;;;;5022999;28;20117;-59
2022/08/26 10:11:33;;;;;;;10.82;2.63;;;21.60;99.90;;;;;;5022808;28;20180;-59
2022/08/26 10:14:06;;;;;;;15.18;2.53;;;21.60;99.90;;;;;;5021503;28;20057;-59
2022/08/26 10:16:51;;;;;;;13.55;2.47;;;21.60;99.90;;;;;;5022284;28;20124;-59
2022/08/26 10:19:39;;;;;;;11.50;2.42;;;21.50;99.90;;;;;;5022396;28;20041;-60
2022/08/26 10:22:19;;;;;;;10.80;2.00;;;21.50;99.90;;;;;;5022348;28;20415;-59
2022/08/26 10:24:53;;;;;;;8.68;2.00;;;21.50;99.90;;;;;;5021779;28;20476;-59
2022/08/26 10:27:30;;;;;;;14.55;2.42;;;21.50;99.90;;;;;;5022607;28;20049;-58
2022/08/26 10:30:04;;;;;;;11.70;2.30;;;21.50;99.90;;;;;;5022563;28;20084;-59
2022/08/26 10:32:38;;;;;;;7.90;2.08;;;21.50;99.90;;;;;;5021729;28;20045;-59
2022/08/26 10:35:08;;;;;;;10.27;2.47;;;21.50;99.90;;;;;;5021604;28;20098;-58
2022/08/26 10:37:42;;;;;;;9.38;2.10;;;21.50;99.90;;;;;;5022602;28;20045;-59
2022/08/26 10:40:40;;;;;;;8.55;2.50;;;21.50;99.90;;;;;;5023555;28;20602;-59
2022/08/26 10:43:16;;;;;;;9.73;1.90;;;21.50;99.90;;;;;;5023374;28;20061;-59
2022/08/26 10:45:49;;;;;;;11.52;2.40;;;21.50;99.90;;;;;;5022446;28;20041;-59
2022/08/26 10:48:34;;;;;;;9.18;1.77;;;21.60;99.90;;;;;;5022638;28;20045;-58
2022/08/26 10:51:02;;;;;;;10.60;2.50;;;21.60;99.90;;;;;;5021737;28;20052;-59
2022/08/26 10:53:40;;;;;;;8.75;2.38;;;21.50;99.90;;;;;;5021557;28;20063;-59
2022/08/26 10:56:34;;;;;;;9.80;2.38;;;21.60;99.90;;;;;;5022302;28;20510;-59
2022/08/26 10:59:18;;;;;;;14.73;2.53;;;21.50;99.90;;;;;;5019357;28;20049;-59
2022/08/26 11:01:55;;;;;;;6.30;2.20;;;21.60;99.90;;;;;;5021372;28;20467;-58
2022/08/26 11:04:39;;;;;;;9.25;2.60;;;21.60;99.90;;;;;;5023048;28;20095;-59
2022/08/26 11:07:37;;;;;;;6.93;2.33;;;21.60;99.90;;;;;;5022488;28;20033;-59
2022/08/26 11:10:16;;;;;;;11.15;2.58;;;21.60;99.90;;;;;;5022791;28;20100;-59
2022/08/26 11:12:41;;;;;;;13.43;2.45;;;21.60;99.90;;;;;;5022347;28;20488;-59
2022/08/26 11:15:39;;;;;;;9.77;2.65;;;21.50;99.90;;;;;;5020502;28;20065;-59
2022/08/26 11:18:07;;;;;;;9.90;2.45;;;21.50;99.90;;;;;;5021124;28;20068;-59
2022/08/26 11:20:44;;;;;;;14.25;2.85;;;21.40;99.90;;;;;;5020390;28;20563;-59
2022/08/26 11:23:19;;;;;;;13.85;2.70;;;21.40;99.90;;;;;;5021865;28;20046;-59
2022/08/26 11:25:59;;;;;;;12.40;2.70;;;21.20;99.90;;;;;;5021844;28;20049;-59
2022/08/26 11:28:38;;;;;;;12.95;2.75;;;21.20;99.90;;;;;;5022790;28;20092;-59
2022/08/26 11:31:08;;;;;;;11.70;2.90;;;21.10;99.90;;;;;;5020300;28;20037;-59
2022/08/26 11:33:48;;;;;;;10.00;2.60;;;21.10;99.90;;;;;;5021769;28;20107;-59
2022/08/26 11:36:33;;;;;;;12.27;2.92;;;21.10;99.90;;;;;;5020282;28;20045;-59
2022/08/26 11:39:11;;;;;;;11.05;2.50;;;21.00;99.90;;;;;;5021065;28;20049;-58
2022/08/26 11:41:44;;;;;;;12.88;2.58;;;20.90;99.90;;;;;;5021260;28;20049;-59
2022/08/26 11:44:16;;;;;;;11.10;2.60;;;20.90;99.90;;;;;;5020641;28;20053;-59
2022/08/26 11:46:51;;;;;;;8.55;2.50;;;20.80;99.90;;;;;;5036620;28;20076;-59
2022/08/26 11:49:18;;;;;;;12.77;2.85;;;20.70;99.90;;;;;;5003659;28;20120;-58
2022/08/26 11:51:44;;;;;;;11.60;2.85;;;20.60;99.90;;;;;;5021196;28;20045;-58
2022/08/26 11:54:19;;;;;;;12.70;2.92;;;20.60;99.90;;;;;;5020225;28;20144;-59
2022/08/26 11:56:48;;;;;;;12.32;2.45;;;20.60;99.90;;;;;;5021970;28;20099;-58
2022/08/26 11:59:22;;;;;;;12.73;2.90;;;20.60;99.90;;;;;;5019994;28;20045;-58
2022/08/26 12:01:50;;;;;;;12.68;2.38;;;20.70;99.90;;;;;;5021675;28;20044;-59
2022/08/26 12:04:44;;;;;;;13.20;2.83;;;20.70;99.90;;;;;;5019201;28;20049;-59
2022/08/26 12:07:11;;;;;;;14.32;2.83;;;20.80;99.90;;;;;;5020177;28;20411;-58
2022/08/26 12:09:51;;;;;;;15.00;3.42;;;20.80;99.90;;;;;;5020220;28;20080;-58
2022/08/26 12:12:23;;;;;;;20.20;2.92;;;20.80;99.90;;;;;;5019205;28;20060;-59
2022/08/26 12:15:11;;;;;;;10.52;2.63;;;20.80;99.90;;;;;;5019576;28;20053;-58
2022/08/26 12:17:38;;;;;;;9.45;1.90;;;20.90;99.90;;;;;;5020214;28;20045;-58
2022/08/26 12:20:15;;;;;;;10.40;2.03;;;20.90;99.90;;;;;;5017928;28;20060;-59
2022/08/26 12:22:42;;;;;;;8.02;1.98;;;21.00;99.90;;;;;;5021152;28;20041;-59
2022/08/26 12:25:09;;;;;;;8.43;1.58;;;21.00;99.90;;;;;;5020052;28;20134;-58
2022/08/26 12:27:44;;;;;;;7.53;1.98;;;21.10;99.90;;;;;;5020003;28;20136;-58
2022/08/26 12:30:19;;;;;;;8.70;2.13;;;21.10;99.90;;;;;;5020004;28;20500;-59
2022/08/26 12:32:48;;;;;;;8.70;1.70;;;21.10;99.90;;;;;;5019841;28;20042;-58
2022/08/26 12:35:16;;;;;;;7.72;1.67;;;21.10;99.90;;;;;;5020420;28;20166;-58
2022/08/26 12:37:48;;;;;;;5.72;1.90;;;21.20;99.90;;;;;;5019453;28;20099;-59
2022/08/26 12:40:29;;;;;;;7.03;1.73;;;21.20;99.90;;;;;;5020056;28;20064;-59
2022/08/26 12:42:57;;;;;;;6.13;1.45;;;21.30;99.90;;;;;;5019385;28;20041;-59
2022/08/26 12:45:31;;;;;;;10.43;1.90;;;21.30;99.90;;;;;;5017591;28;20076;-58
2022/08/26 12:48:19;;;;;;;9.52;2.40;;;21.30;99.90;;;;;;5020036;28;20087;-59
2022/08/26 12:50:48;;;;;;;8.63;2.50;;;21.20;99.90;;;;;;5015112;28;20466;-58
2022/08/26 12:53:24;;;;;;;10.80;2.70;;;21.20;99.90;;;;;;5019230;28;20100;-58
2022/08/26 12:55:53;;;;;;;14.88;2.80;;;21.10;99.90;;;;;;5035448;28;20084;-58
2022/08/26 12:58:27;;;;;;;12.32;2.60;;;21.10;99.90;;;;;;5020654;28;20065;-59